Time;durP1;ratioP1;P1;durP2;ratioP2;P2;SDS_P1;SDS_P2;PMS_P1;PMS_P2;Temp;Humidity;BMP_temperature;BMP_pressure;BME280_temperature;BME280_humidity;BME280_pressure;Samples;Min_cycle;Max_cycle;Signal;HPM_P1;HPM_P2
2021/10/07 00:01:03;;;;;;;18.17;8.48;;;;;;;6.64;51.96;102514.25;5050374;28;20040;-59
2021/10/07 00:03:28;;;;;;;12.18;8.13;;;;;;;6.61;51.79;102501.88;5050279;28;20033;-56
2021/10/07 00:05:54;;;;;;;14.05;8.38;;;;;;;6.61;51.72;102506.34;5050779;28;20029;-59
2021/10/07 00:08:19;;;;;;;12.43;8.23;;;;;;;6.59;51.88;102508.16;5049716;28;20084;-56
2021/10/07 00:10:45;;;;;;;14.90;9.05;;;;;;;6.59;51.79;102514.34;5049910;28;20037;-59
2021/10/07 00:13:10;;;;;;;15.57;8.30;;;;;;;6.56;52.15;102516.22;5050406;28;20048;-57
2021/10/07 00:15:35;;;;;;;14.07;8.50;;;;;;;6.55;51.83;102525.13;5050511;28;20021;-60
2021/10/07 00:18:01;;;;;;;15.43;8.32;;;;;;;6.52;51.93;102514.53;5050138;28;20032;-59
2021/10/07 00:20:27;;;;;;;12.77;7.80;;;;;;;6.52;51.78;102510.06;5049963;28;20401;-58
2021/10/07 00:22:52;;;;;;;14.00;8.18;;;;;;;6.53;51.93;102513.63;5048691;28;20025;-59
2021/10/07 00:25:17;;;;;;;13.10;8.25;;;;;;;6.48;52.04;102513.72;5050308;28;20031;-60
2021/10/07 00:27:43;;;;;;;13.45;8.50;;;;;;;6.47;51.95;102520.81;5049989;28;20021;-58
2021/10/07 00:30:17;;;;;;;13.18;8.00;;;;;;;6.51;52.21;102520.72;5049391;28;20108;-60
2021/10/07 00:33:06;;;;;;;13.40;8.13;;;;;;;6.47;51.75;102520.81;5049312;28;20903;-58
2021/10/07 00:40:38;;;;;;;11.32;7.82;;;;;;;6.43;51.66;102520.91;5047160;28;20051;-59
2021/10/07 00:43:04;;;;;;;20.33;7.90;;;;;;;6.41;52.16;102522.72;5030080;28;20025;-58
2021/10/07 00:45:29;;;;;;;12.23;7.43;;;;;;;6.37;52.50;102521.91;5038390;28;20035;-59
2021/10/07 00:47:55;;;;;;;11.35;7.85;;;;;;;6.36;52.58;102528.13;5050085;28;20029;-55
2021/10/07 00:50:20;;;;;;;13.60;8.20;;;;;;;6.31;52.54;102522.03;5049982;28;20025;-60
2021/10/07 00:52:46;;;;;;;12.30;8.07;;;;;;;6.29;52.49;102518.53;5050209;28;20041;-60
2021/10/07 00:55:13;;;;;;;12.35;7.80;;;;;;;6.29;53.18;102526.50;5047780;28;20033;-59
2021/10/07 00:57:40;;;;;;;11.95;6.95;;;;;;;6.27;53.36;102546.91;5049603;28;20048;-59
2021/10/07 01:00:06;;;;;;;11.85;7.75;;;;;;;6.22;53.32;102532.81;5048584;28;20033;-60
2021/10/07 01:02:32;;;;;;;13.45;8.50;;;;;;;6.14;53.98;102524.97;5050010;28;20033;-59
2021/10/07 01:04:57;;;;;;;15.23;8.07;;;;;;;6.15;53.68;102532.94;5049959;28;20040;-59
2021/10/07 01:07:23;;;;;;;14.55;8.20;;;;;;;6.13;54.04;102545.41;5031374;28;20064;-59
2021/10/07 01:09:48;;;;;;;15.27;8.50;;;;;;;6.12;54.14;102535.66;5028687;28;20041;-61
2021/10/07 01:12:14;;;;;;;15.57;9.50;;;;;;;6.11;54.14;102536.56;5029574;28;20037;-60
2021/10/07 01:14:46;;;;;;;16.23;8.50;;;;;;;6.11;53.50;102536.56;5029204;28;20074;-60
2021/10/07 01:17:14;;;;;;;13.65;8.43;;;;;;;6.09;54.11;102545.47;5029896;28;20048;-59
2021/10/07 01:19:45;;;;;;;11.98;7.72;;;;;;;6.12;54.74;102546.31;5029952;28;20040;-56
2021/10/07 01:22:11;;;;;;;17.00;8.85;;;;;;;6.06;54.34;102541.09;5029506;28;20453;-60
2021/10/07 01:24:37;;;;;;;14.55;7.88;;;;;;;6.11;53.57;102547.22;5029551;28;20072;-60
2021/10/07 01:27:03;;;;;;;14.73;8.77;;;;;;;6.16;53.99;102545.34;5030317;28;20084;-60
2021/10/07 01:29:29;;;;;;;13.88;8.48;;;;;;;6.14;54.29;102544.50;5038060;28;20032;-56
2021/10/07 01:31:55;;;;;;;15.35;9.00;;;;;;;6.15;54.54;102553.38;5049767;28;20037;-60
2021/10/07 01:34:23;;;;;;;15.55;8.90;;;;;;;6.13;54.56;102561.38;5048928;28;20036;-60
2021/10/07 01:36:49;;;;;;;15.18;9.02;;;;;;;6.11;54.67;102548.97;5050022;28;20040;-60
2021/10/07 01:39:14;;;;;;;14.80;9.23;;;;;;;6.09;54.53;102551.69;5046668;28;20033;-59
2021/10/07 01:41:40;;;;;;;16.17;8.90;;;;;;;6.05;54.56;102557.97;5029515;28;20040;-59
2021/10/07 01:44:05;;;;;;;13.77;8.80;;;;;;;6.01;55.01;102557.13;5032848;28;20030;-59
2021/10/07 01:46:31;;;;;;;14.43;8.77;;;;;;;5.99;55.07;102563.34;5032053;28;20094;-58
2021/10/07 01:48:56;;;;;;;15.27;9.00;;;;;;;5.97;54.99;102565.16;5033456;28;20034;-59
2021/10/07 01:51:22;;;;;;;16.42;8.82;;;;;;;5.96;55.08;102568.72;5033683;28;20450;-59
2021/10/07 01:53:47;;;;;;;16.15;8.85;;;;;;;5.91;54.84;102560.84;5030949;28;20033;-61
2021/10/07 01:56:13;;;;;;;17.85;9.50;;;;;;;5.90;54.95;102572.34;5032954;28;20037;-59
2021/10/07 01:58:38;;;;;;;13.57;9.23;;;;;;;5.88;55.07;102568.84;5032991;28;20485;-59
2021/10/07 02:01:03;;;;;;;17.45;9.13;;;;;;;5.88;55.04;102569.75;5033304;28;20117;-60
2021/10/07 02:03:29;;;;;;;18.33;10.57;;;;;;;5.85;55.33;102567.13;5032851;28;20111;-60
2021/10/07 02:05:54;;;;;;;18.58;10.02;;;;;;;5.86;55.24;102573.31;5033319;28;20390;-56
2021/10/07 02:08:20;;;;;;;15.55;8.60;;;;;;;5.83;55.35;102568.94;5033112;28;20422;-59
2021/10/07 02:10:45;;;;;;;14.13;8.77;;;;;;;5.82;55.41;102566.28;5032363;28;20549;-57
2021/10/07 02:13:11;;;;;;;17.70;9.38;;;;;;;5.77;55.67;102557.53;5031913;28;20374;-60
2021/10/07 02:15:37;;;;;;;20.90;8.88;;;;;;;5.73;56.07;102562.91;5032396;28;20034;-59
2021/10/07 02:18:02;;;;;;;15.77;9.00;;;;;;;5.69;55.84;102563.84;5032178;28;20034;-58
2021/10/07 02:20:28;;;;;;;17.65;9.20;;;;;;;5.69;55.69;102566.50;5032135;28;20031;-59
2021/10/07 02:22:54;;;;;;;14.20;9.02;;;;;;;5.68;56.49;102574.50;5032678;28;20426;-59
2021/10/07 02:25:19;;;;;;;15.30;9.05;;;;;;;5.68;56.32;102571.84;5032182;28;20438;-60
2021/10/07 02:27:45;;;;;;;15.63;8.75;;;;;;;5.68;56.75;102570.06;5032440;28;20783;-60
2021/10/07 02:30:13;;;;;;;18.73;9.15;;;;;;;5.48;55.94;102545.59;5045780;28;20033;-58
2021/10/07 02:32:39;;;;;;;16.88;9.55;;;;;;;5.62;56.18;102567.50;5051747;28;20033;-58
2021/10/07 02:35:05;;;;;;;16.02;9.10;;;;;;;5.60;56.89;102575.50;5051640;28;20096;-60
2021/10/07 02:37:31;;;;;;;13.30;8.82;;;;;;;5.58;57.09;102571.09;5052017;28;20422;-60
2021/10/07 02:39:56;;;;;;;16.27;9.00;;;;;;;5.55;56.54;102577.34;5052256;28;20113;-58
2021/10/07 02:42:22;;;;;;;14.25;9.10;;;;;;;5.44;57.02;102566.00;5051751;28;20443;-60
2021/10/07 02:44:47;;;;;;;18.58;9.40;;;;;;;5.53;57.01;102584.44;5051985;28;20033;-58
2021/10/07 02:47:13;;;;;;;16.52;9.20;;;;;;;5.51;57.43;102583.59;5052301;28;20033;-60
2021/10/07 02:49:38;;;;;;;16.65;9.35;;;;;;;5.52;57.09;102574.72;5051717;28;20453;-59
2021/10/07 02:52:04;;;;;;;16.35;9.63;;;;;;;5.51;57.21;102586.25;5051223;28;20029;-59
2021/10/07 02:54:29;;;;;;;17.45;8.82;;;;;;;5.22;57.69;102529.13;5050121;28;20060;-57
2021/10/07 02:56:55;;;;;;;14.93;9.35;;;;;;;5.47;56.95;102571.25;5052789;28;20101;-57
2021/10/07 02:59:20;;;;;;;17.80;9.02;;;;;;;5.42;58.11;102573.97;5050535;28;20056;-61
2021/10/07 03:01:46;;;;;;;17.15;9.27;;;;;;;5.37;57.46;102569.66;5050014;28;20392;-60
2021/10/07 03:04:11;;;;;;;15.65;9.10;;;;;;;5.20;57.29;102538.03;5051914;28;20028;-60
2021/10/07 03:06:37;;;;;;;17.00;8.68;;;;;;;5.30;57.74;102567.09;5051908;28;20037;-60
2021/10/07 03:09:03;;;;;;;14.00;8.85;;;;;;;5.31;57.70;102560.88;5051583;28;20045;-61
2021/10/07 03:11:28;;;;;;;17.65;8.95;;;;;;;5.36;57.81;102579.38;5051466;28;20443;-60
2021/10/07 03:13:54;;;;;;;16.42;9.68;;;;;;;5.34;58.01;102569.72;5051397;28;20033;-59
2021/10/07 03:16:19;;;;;;;19.88;10.65;;;;;;;5.34;58.90;102572.38;5051616;28;20025;-58
2021/10/07 03:18:44;;;;;;;16.85;9.35;;;;;;;5.32;59.25;102573.25;5051008;28;20028;-60
2021/10/07 03:21:10;;;;;;;22.70;9.65;;;;;;;5.32;59.08;102569.72;5051274;28;20104;-61
2021/10/07 03:23:36;;;;;;;18.75;9.48;;;;;;;5.07;59.07;102534.66;5051921;28;20079;-60
2021/10/07 03:26:01;;;;;;;20.35;10.27;;;;;;;5.32;59.01;102575.03;5050776;28;20088;-59
2021/10/07 03:28:27;;;;;;;20.25;10.05;;;;;;;5.25;59.37;102565.41;5050697;28;20052;-58
2021/10/07 03:30:52;;;;;;;16.88;9.57;;;;;;;5.34;59.51;102575.03;5050716;28;20453;-59
2021/10/07 03:33:18;;;;;;;18.75;10.00;;;;;;;5.07;59.88;102538.19;5049391;28;20021;-56
2021/10/07 03:35:43;;;;;;;21.65;10.07;;;;;;;5.31;59.60;102592.75;5051124;28;20036;-58
2021/10/07 03:38:08;;;;;;;19.55;9.80;;;;;;;5.32;60.19;102589.19;5050859;28;20429;-58
2021/10/07 03:40:34;;;;;;;20.23;10.63;;;;;;;5.34;59.99;102590.97;5049386;28;20136;-58
2021/10/07 03:43:00;;;;;;;18.08;10.20;;;;;;;5.34;60.30;102581.19;5051409;28;20032;-59
2021/10/07 03:45:25;;;;;;;19.42;10.15;;;;;;;5.36;60.39;102590.00;5051730;28;20083;-57
2021/10/07 03:47:51;;;;;;;20.73;11.48;;;;;;;5.32;60.10;102583.88;5050998;28;20098;-60
2021/10/07 03:50:17;;;;;;;19.83;9.95;;;;;;;5.34;60.03;102581.19;5050377;28;20036;-59
2021/10/07 03:52:42;;;;;;;21.17;10.38;;;;;;;5.43;60.58;102590.81;5049476;28;20033;-59
2021/10/07 03:55:08;;;;;;;19.58;11.60;;;;;;;5.43;60.46;102591.72;5051031;28;20445;-60
2021/10/07 03:57:33;;;;;;;24.27;11.60;;;;;;;5.45;60.55;102589.00;5049239;28;20025;-57
2021/10/07 03:59:59;;;;;;;20.27;11.55;;;;;;;5.47;60.25;102587.22;5050088;28;20033;-57
2021/10/07 04:02:24;;;;;;;25.15;11.73;;;;;;;5.51;60.50;102588.91;5050598;28;20044;-59
2021/10/07 04:04:50;;;;;;;28.00;11.82;;;;;;;5.56;59.89;102586.19;5050995;28;20377;-61
2021/10/07 04:07:17;;;;;;;28.60;12.68;;;;;;;5.62;59.55;102583.44;5050533;28;20036;-58
2021/10/07 04:09:42;;;;;;;24.50;13.15;;;;;;;5.64;60.08;102584.28;5049655;28;20045;-60
2021/10/07 04:12:08;;;;;;;23.88;13.05;;;;;;;5.67;60.28;102583.38;5048965;28;20114;-61
2021/10/07 04:14:34;;;;;;;24.35;12.75;;;;;;;5.67;59.87;102570.09;5049457;28;20036;-59
2021/10/07 04:17:00;;;;;;;27.17;13.43;;;;;;;5.79;60.03;102580.53;5050589;28;20046;-60
2021/10/07 04:19:25;;;;;;;23.90;13.47;;;;;;;5.87;59.55;102586.59;5049843;28;20036;-60
2021/10/07 04:21:51;;;;;;;26.80;15.00;;;;;;;5.95;59.20;102583.81;5049177;28;20033;-60
2021/10/07 04:24:16;;;;;;;28.38;14.65;;;;;;;6.02;59.10;102585.50;5049272;28;20033;-61
2021/10/07 04:26:42;;;;;;;25.17;14.65;;;;;;;6.11;58.90;102584.47;5049726;28;20685;-61
2021/10/07 04:29:07;;;;;;;31.05;14.25;;;;;;;6.16;59.33;102584.38;5044711;28;20021;-60
2021/10/07 04:31:33;;;;;;;27.60;14.05;;;;;;;6.22;58.83;102580.72;5030004;28;20385;-57
2021/10/07 04:33:58;;;;;;;26.17;14.70;;;;;;;6.26;58.69;102583.31;5029076;28;20033;-58
2021/10/07 04:36:24;;;;;;;28.27;13.93;;;;;;;6.36;58.46;102580.47;5030390;28;20513;-58
2021/10/07 04:38:49;;;;;;;26.38;13.38;;;;;;;6.45;57.99;102577.66;5029739;28;20060;-61
2021/10/07 04:41:15;;;;;;;27.60;14.63;;;;;;;6.79;57.71;102579.63;5030072;28;20037;-61
2021/10/07 04:43:41;;;;;;;25.10;14.68;;;;;;;8.04;54.00;102586.56;5030318;28;20110;-57
2021/10/07 04:46:07;;;;;;;22.73;13.82;;;;;;;9.62;49.44;102570.47;5029843;28;20068;-60
2021/10/07 04:48:33;;;;;;;23.92;13.23;;;;;;;10.69;46.08;102523.09;5029711;28;20107;-62
2021/10/07 04:50:58;;;;;;;26.30;13.80;;;;;;;12.21;42.74;102551.00;5029037;28;20039;-51
2021/10/07 04:53:24;;;;;;;27.73;12.93;;;;;;;13.55;39.54;102545.72;5029752;28;20026;-59
2021/10/07 04:55:54;;;;;;;23.08;13.25;;;;;;;15.39;35.91;102563.00;5029608;28;20089;-61
2021/10/07 04:58:23;;;;;;;19.23;12.30;;;;;;;17.40;32.15;102549.00;5029671;28;20087;-61
2021/10/07 05:00:50;;;;;;;22.65;12.52;;;;;;;19.17;29.08;102553.06;5030063;28;20044;-60
2021/10/07 05:03:15;;;;;;;22.88;12.68;;;;;;;20.34;27.01;102554.16;5029800;28;20037;-61
2021/10/07 05:05:42;;;;;;;20.27;13.90;;;;;;;21.21;25.40;102549.06;5029595;28;20037;-60
2021/10/07 05:08:08;;;;;;;22.75;13.88;;;;;;;22.25;23.64;102544.94;5029522;28;20084;-60
2021/10/07 05:10:34;;;;;;;20.45;14.10;;;;;;;23.39;22.35;102552.13;5029778;28;20072;-62
2021/10/07 05:12:59;;;;;;;24.48;14.05;;;;;;;24.07;21.62;102551.28;5027721;28;20038;-61
2021/10/07 05:15:25;;;;;;;19.42;13.93;;;;;;;24.87;20.42;102539.09;5028883;28;20044;-61
2021/10/07 05:17:52;;;;;;;25.52;14.77;;;;;;;25.54;19.42;102547.00;5032472;28;20039;-61
2021/10/07 05:20:17;;;;;;;22.00;14.52;;;;;;;26.26;18.30;102540.59;5033430;28;20547;-61
2021/10/07 05:22:43;;;;;;;22.63;14.25;;;;;;;27.20;17.35;102542.53;5031747;28;20037;-60
2021/10/07 05:25:08;;;;;;;26.42;14.25;;;;;;;27.82;16.55;102541.25;5033153;28;20385;-61
2021/10/07 05:27:34;;;;;;;22.65;14.68;;;;;;;28.30;15.50;102540.53;5033730;28;20029;-61
2021/10/07 05:29:59;;;;;;;21.63;12.85;;;;;;;28.82;15.37;102541.06;5045948;28;20029;-60
2021/10/07 05:32:25;;;;;;;17.75;13.23;;;;;;;29.36;14.60;102543.00;5053452;28;20032;-61
2021/10/07 05:34:51;;;;;;;22.13;13.05;;;;;;;29.77;14.18;102498.50;5052174;28;20036;-60
2021/10/07 05:37:16;;;;;;;19.83;13.15;;;;;;;30.69;13.32;102526.03;5053409;28;20404;-61
2021/10/07 05:39:42;;;;;;;19.92;12.90;;;;;;;31.19;12.66;102536.41;5053458;28;20028;-62
2021/10/07 05:42:07;;;;;;;17.30;13.05;;;;;;;31.54;12.06;102500.56;5052903;28;20035;-60
2021/10/07 05:44:33;;;;;;;18.08;12.38;;;;;;;31.85;11.81;102540.91;5052875;28;20065;-62
2021/10/07 05:46:58;;;;;;;19.45;11.30;;;;;;;32.23;11.28;102539.69;5043221;28;20079;-60
2021/10/07 05:49:27;;;;;;;20.77;11.98;;;;;;;32.68;11.31;102542.09;5033911;28;20033;-60
2021/10/07 05:51:53;;;;;;;15.10;10.80;;;;;;;33.15;10.56;102544.19;5033240;28;20424;-62
2021/10/07 05:54:19;;;;;;;19.85;11.45;;;;;;;33.36;10.41;102537.59;5035267;28;20029;-60
2021/10/07 05:56:45;;;;;;;19.58;11.52;;;;;;;33.84;10.11;102541.28;5042282;28;20374;-62
2021/10/07 05:59:11;;;;;;;16.63;11.15;;;;;;;34.37;9.80;102533.97;5043191;28;20645;-62
2021/10/07 06:01:36;;;;;;;18.63;12.18;;;;;;;34.55;9.22;102536.09;5042155;28;20044;-59
2021/10/07 06:04:02;;;;;;;15.85;11.38;;;;;;;34.73;9.34;102543.72;5040212;28;20439;-61
2021/10/07 06:06:27;;;;;;;14.73;11.00;;;;;;;35.11;8.88;102544.81;5041473;28;20017;-59
2021/10/07 06:08:53;;;;;;;17.13;12.23;;;;;;;35.19;8.99;102527.84;5039846;28;20436;-61
2021/10/07 06:11:19;;;;;;;17.02;12.40;;;;;;;35.70;8.58;102553.00;5042607;28;20040;-60
2021/10/07 06:13:45;;;;;;;19.20;11.02;;;;;;;35.85;8.02;102545.13;5041737;28;20397;-63
2021/10/07 06:16:10;;;;;;;14.77;11.75;;;;;;;36.37;7.99;102545.94;5040575;28;20132;-60
2021/10/07 06:18:36;;;;;;;19.52;12.10;;;;;;;36.88;7.72;102543.78;5043405;28;20025;-62
2021/10/07 06:21:02;;;;;;;20.95;12.77;;;;;;;37.23;7.67;102545.91;5044144;28;20377;-61
2021/10/07 06:23:28;;;;;;;18.63;11.32;;;;;;;37.57;7.09;102531.44;5041437;28;20029;-62
2021/10/07 06:25:53;;;;;;;13.60;10.88;;;;;;;37.92;6.64;102503.47;5048430;28;20109;-62
2021/10/07 06:28:19;;;;;;;19.02;11.38;;;;;;;38.46;6.95;102543.56;5043328;28;20025;-62
2021/10/07 06:30:44;;;;;;;16.80;11.73;;;;;;;38.89;6.22;102530.16;5042814;28;20040;-61
2021/10/07 06:33:10;;;;;;;14.68;10.82;;;;;;;39.08;6.18;102541.19;5051635;28;20025;-62
2021/10/07 06:35:35;;;;;;;17.77;11.30;;;;;;;39.29;5.70;102528.38;5039648;28;20028;-62
2021/10/07 06:38:01;;;;;;;17.60;11.45;;;;;;;39.71;5.51;102535.53;5037093;28;20386;-62
2021/10/07 06:40:26;;;;;;;14.88;10.65;;;;;;;39.86;5.48;102529.34;5032000;28;20038;-61
2021/10/07 06:42:52;;;;;;;14.30;10.18;;;;;;;39.79;5.37;102528.66;5032307;28;20116;-62
2021/10/07 06:45:18;;;;;;;14.32;8.52;;;;;;;39.84;5.20;102532.44;5030704;28;20022;-62
2021/10/07 06:47:43;;;;;;;9.90;6.75;;;;;;;39.83;4.54;102524.25;5032185;28;20044;-62
2021/10/07 06:50:10;;;;;;;8.13;6.68;;;;;;;40.12;4.74;102529.72;5031273;28;20088;-67
2021/10/07 06:52:37;;;;;;;17.02;9.07;;;;;;;40.07;4.91;102526.84;5030715;28;20423;-63
2021/10/07 06:55:04;;;;;;;8.05;6.22;;;;;;;40.25;4.40;102534.09;5034953;28;20021;-63
2021/10/07 06:57:29;;;;;;;9.43;6.35;;;;;;;40.16;4.18;102519.69;5040212;28;20055;-62
2021/10/07 06:59:55;;;;;;;8.98;6.80;;;;;;;40.05;4.58;102525.13;5047218;28;20533;-63
2021/10/07 07:02:20;;;;;;;12.23;5.97;;;;;;;39.96;4.19;102520.22;5051665;28;20033;-67
2021/10/07 07:04:46;;;;;;;10.32;7.32;;;;;;;39.99;4.70;102531.78;5047467;28;20033;-62
2021/10/07 07:07:11;;;;;;;8.85;7.05;;;;;;;39.75;4.43;102525.50;5052020;28;20041;-62
2021/10/07 07:09:37;;;;;;;6.93;6.22;;;;;;;39.96;4.50;102528.66;5048840;28;20485;-64
2021/10/07 07:12:03;;;;;;;7.13;6.40;;;;;;;39.96;4.19;102534.25;5049479;28;20668;-64
2021/10/07 07:14:28;;;;;;;6.93;5.07;;;;;;;39.62;4.18;102521.97;5050226;28;20045;-65
2021/10/07 07:16:53;;;;;;;11.20;6.45;;;;;;;39.30;4.22;102530.09;5049954;28;20024;-63
2021/10/07 07:19:19;;;;;;;9.20;6.10;;;;;;;39.07;4.32;102528.25;5051631;28;20040;-62
2021/10/07 07:21:44;;;;;;;7.50;5.40;;;;;;;38.66;4.35;102515.16;5051780;28;20036;-62
2021/10/07 07:24:10;;;;;;;12.15;6.90;;;;;;;38.34;4.84;102524.84;5051530;28;20436;-63
2021/10/07 07:26:37;;;;;;;11.20;7.80;;;;;;;38.31;5.12;102535.66;5050148;28;20399;-62
2021/10/07 07:29:03;;;;;;;10.55;8.10;;;;;;;37.85;5.24;102527.06;5050227;28;20099;-62
2021/10/07 07:31:29;;;;;;;12.43;8.45;;;;;;;37.46;5.56;102541.47;5050626;28;20453;-62
2021/10/07 07:33:55;;;;;;;6.78;6.00;;;;;;;36.65;5.61;102531.44;5050145;28;20408;-63
2021/10/07 07:36:23;;;;;;;8.48;6.07;;;;;;;35.29;6.30;102535.69;5051462;28;20040;-62
2021/10/07 07:38:50;;;;;;;10.82;6.07;;;;;;;32.57;7.58;102537.97;5051085;28;20045;-63
2021/10/07 07:41:16;;;;;;;7.60;5.82;;;;;;;29.31;9.78;102529.72;5050822;28;20033;-62
2021/10/07 07:43:42;;;;;;;10.50;6.40;;;;;;;26.13;12.06;102531.88;5051368;28;20029;-61
2021/10/07 07:46:08;;;;;;;9.63;7.25;;;;;;;23.77;14.14;102540.38;5051879;28;20073;-61
2021/10/07 07:48:34;;;;;;;10.55;7.35;;;;;;;22.05;15.50;102512.91;5050738;28;20024;-62
2021/10/07 07:51:01;;;;;;;12.30;7.05;;;;;;;20.91;16.72;102545.16;5032470;28;20052;-62
2021/10/07 07:53:26;;;;;;;10.35;7.18;;;;;;;19.79;17.95;102546.56;5051478;28;20223;-62
2021/10/07 07:55:52;;;;;;;15.25;7.20;;;;;;;18.90;19.25;102543.22;5050446;28;20108;-61
2021/10/07 07:58:18;;;;;;;13.23;7.35;;;;;;;18.29;19.42;102527.63;5050913;28;20060;-62
2021/10/07 08:00:45;;;;;;;14.80;8.50;;;;;;;17.69;20.54;102538.91;5032757;28;20060;-62
2021/10/07 08:03:11;;;;;;;10.88;7.18;;;;;;;16.91;21.62;102526.84;5051266;28;20103;-63
2021/10/07 08:05:36;;;;;;;13.82;7.20;;;;;;;16.53;21.99;102540.97;5049290;28;20128;-61
2021/10/07 08:08:02;;;;;;;14.18;7.78;;;;;;;16.33;22.54;102546.66;5050836;28;20440;-62
2021/10/07 08:10:28;;;;;;;12.82;7.20;;;;;;;16.16;22.57;102541.41;5050157;28;20089;-62
2021/10/07 08:12:53;;;;;;;9.27;6.85;;;;;;;15.97;22.58;102549.78;5051163;28;20536;-61
2021/10/07 08:15:19;;;;;;;14.45;7.45;;;;;;;15.81;22.75;102547.94;5049707;28;20033;-60
2021/10/07 08:17:44;;;;;;;12.57;6.43;;;;;;;15.69;23.03;102554.94;5049863;28;20056;-61
2021/10/07 08:20:12;;;;;;;16.10;7.03;;;;;;;15.56;23.16;102549.41;5046650;28;20501;-62
2021/10/07 08:22:40;;;;;;;13.00;7.00;;;;;;;15.35;23.62;102541.59;5050502;28;20135;-62
2021/10/07 08:25:07;;;;;;;16.17;7.32;;;;;;;15.03;23.85;102538.00;5049969;28;20473;-62
2021/10/07 08:27:32;;;;;;;12.75;7.32;;;;;;;14.80;24.88;102537.47;5050601;28;20033;-61
2021/10/07 08:29:58;;;;;;;13.05;7.10;;;;;;;14.50;25.10;102495.91;5048732;28;20044;-66
2021/10/07 08:32:24;;;;;;;14.75;7.35;;;;;;;14.71;24.95;102537.97;5049231;28;20029;-66
2021/10/07 08:34:50;;;;;;;16.75;7.18;;;;;;;14.66;24.69;102538.19;5047690;28;20029;-68
2021/10/07 08:37:16;;;;;;;14.27;8.52;;;;;;;14.59;24.99;102542.19;5047308;28;20503;-67
2021/10/07 08:39:41;;;;;;;16.85;8.70;;;;;;;14.56;25.50;102534.28;5049396;28;20039;-69
2021/10/07 08:42:07;;;;;;;18.13;9.50;;;;;;;14.55;25.63;102538.78;5048545;28;20032;-69
2021/10/07 08:44:32;;;;;;;14.43;8.60;;;;;;;14.45;25.43;102522.22;5047745;28;20120;-68
2021/10/07 08:46:58;;;;;;;16.17;7.50;;;;;;;14.36;25.51;102536.22;5047964;28;20037;-71
2021/10/07 08:49:27;;;;;;;15.07;7.57;;;;;;;14.33;25.50;102536.38;5048371;28;20043;-68
2021/10/07 08:51:54;;;;;;;16.70;7.35;;;;;;;14.33;25.63;102536.38;5050785;28;20166;-68
2021/10/07 08:54:20;;;;;;;13.48;7.22;;;;;;;14.33;25.27;102533.69;5052907;28;20116;-69
2021/10/07 08:56:47;;;;;;;12.57;7.32;;;;;;;14.10;26.11;102546.53;5051273;28;20040;-69
2021/10/07 08:59:14;;;;;;;13.25;7.60;;;;;;;13.98;26.45;102552.56;5052090;28;20025;-67
2021/10/07 09:01:44;;;;;;;10.27;7.10;;;;;;;14.00;25.87;102545.28;5053261;28;20021;-64
2021/10/07 09:04:33;;;;;;;14.75;7.95;;;;;;;13.87;25.38;102520.81;5051479;28;20107;-65
2021/10/07 09:07:09;;;;;;;12.32;6.97;;;;;;;13.61;26.77;102550.78;5051716;28;20037;-64
2021/10/07 09:09:40;;;;;;;10.10;7.28;;;;;;;13.61;26.38;102542.72;5052014;28;20052;-65
2021/10/07 09:12:16;;;;;;;13.13;7.65;;;;;;;13.55;26.73;102544.84;5053366;28;20067;-64
2021/10/07 09:14:47;;;;;;;11.82;7.85;;;;;;;13.52;27.17;102545.88;5050821;28;20029;-65
2021/10/07 09:17:16;;;;;;;16.88;8.57;;;;;;;13.53;27.18;102541.34;5052156;28;20583;-64
2021/10/07 09:19:48;;;;;;;13.93;7.93;;;;;;;13.41;27.16;102505.13;5051870;28;20029;-64
2021/10/07 09:22:18;;;;;;;13.90;8.35;;;;;;;13.57;27.01;102532.16;5052964;28;20036;-65
2021/10/07 09:24:48;;;;;;;13.93;8.68;;;;;;;13.60;27.07;102540.97;5052605;28;20366;-65
2021/10/07 09:27:20;;;;;;;14.68;8.70;;;;;;;13.66;27.11;102536.22;5051545;28;20040;-67
2021/10/07 09:29:52;;;;;;;12.15;8.20;;;;;;;13.72;27.08;102533.22;5053469;28;20042;-65
2021/10/07 09:32:28;;;;;;;17.25;9.48;;;;;;;13.62;26.95;102500.50;5052993;28;20068;-66
2021/10/07 09:34:56;;;;;;;13.85;9.45;;;;;;;13.66;27.40;102523.66;5052718;28;20032;-66
2021/10/07 09:37:25;;;;;;;13.88;8.93;;;;;;;13.70;27.22;102532.41;5052717;28;20039;-61
2021/10/07 09:40:13;;;;;;;20.38;9.95;;;;;;;13.61;27.62;102537.34;5053663;28;20032;-59
2021/10/07 09:42:40;;;;;;;21.08;9.80;;;;;;;13.48;28.10;102528.13;5052668;28;20072;-57
2021/10/07 09:45:17;;;;;;;21.10;9.93;;;;;;;13.59;27.70;102538.34;5053073;28;20032;-62
2021/10/07 09:47:46;;;;;;;18.15;9.60;;;;;;;13.51;28.09;102522.59;5053443;28;20029;-64
2021/10/07 09:50:26;;;;;;;19.13;8.68;;;;;;;13.50;28.32;102528.91;5052116;28;20032;-61
2021/10/07 09:53:05;;;;;;;21.27;10.55;;;;;;;13.59;28.08;102525.78;5031447;28;20029;-63
2021/10/07 09:55:43;;;;;;;17.52;9.60;;;;;;;13.69;27.82;102519.91;5032208;28;20112;-60
2021/10/07 09:58:15;;;;;;;23.40;10.27;;;;;;;13.63;28.07;102510.34;5032400;28;20043;-60
2021/10/07 10:00:42;;;;;;;20.65;9.07;;;;;;;13.46;28.10;102512.06;5032580;28;20029;-61
2021/10/07 10:03:09;;;;;;;15.23;9.65;;;;;;;13.31;28.91;102489.44;5040477;28;20036;-63
2021/10/07 10:05:37;;;;;;;18.23;9.63;;;;;;;13.30;29.27;102490.41;5050387;28;20033;-62
2021/10/07 10:08:04;;;;;;;15.98;9.32;;;;;;;13.38;29.17;102489.13;5051596;28;20053;-61
2021/10/07 10:10:30;;;;;;;21.58;9.70;;;;;;;13.44;28.38;102492.44;5051715;28;20037;-62
2021/10/07 10:12:56;;;;;;;15.73;9.55;;;;;;;13.52;28.66;102475.91;5051205;28;20041;-62
2021/10/07 10:15:23;;;;;;;24.58;9.90;;;;;;;13.57;28.77;102478.34;5052733;28;20052;-60
2021/10/07 10:17:49;;;;;;;19.48;9.38;;;;;;;13.74;28.31;102489.13;5050926;28;20037;-60
2021/10/07 10:20:16;;;;;;;14.27;9.85;;;;;;;13.73;27.88;102483.78;5051501;28;20033;-60
2021/10/07 10:22:57;;;;;;;30.73;10.05;;;;;;;13.70;27.91;102492.94;5052879;28;20040;-58
2021/10/07 10:25:28;;;;;;;17.48;10.50;;;;;;;13.69;27.64;102491.19;5052577;28;20037;-61
2021/10/07 10:28:06;;;;;;;21.50;10.57;;;;;;;13.57;28.10;102495.38;5052656;28;20029;-61
2021/10/07 10:30:44;;;;;;;16.40;9.70;;;;;;;13.12;27.99;102453.63;5052850;28;20409;-62
2021/10/07 10:33:27;;;;;;;16.58;10.00;;;;;;;13.20;28.34;102483.72;5051885;28;20077;-62
2021/10/07 10:35:53;;;;;;;14.63;8.88;;;;;;;13.07;28.77;102478.94;5052269;28;20048;-62
2021/10/07 10:38:18;;;;;;;17.50;9.45;;;;;;;13.09;28.76;102461.88;5050889;28;20033;-62
2021/10/07 10:40:44;;;;;;;18.80;9.40;;;;;;;12.84;28.49;102406.59;5052262;28;20107;-62
2021/10/07 10:43:20;;;;;;;17.80;9.30;;;;;;;13.38;28.46;102464.91;5050832;28;20434;-62
2021/10/07 10:45:49;;;;;;;15.25;9.90;;;;;;;13.35;28.71;102466.81;5052420;28;20098;-62
2021/10/07 10:48:41;;;;;;;16.45;9.65;;;;;;;13.38;28.54;102467.59;5052634;28;20029;-62
2021/10/07 10:51:11;;;;;;;15.40;8.68;;;;;;;13.36;28.55;102467.66;5047711;28;20485;-65
2021/10/07 10:53:59;;;;;;;15.85;9.05;;;;;;;13.38;28.49;102455.00;5051842;28;20191;-61
2021/10/07 10:56:29;;;;;;;17.35;9.50;;;;;;;13.34;28.83;102464.19;5052552;28;20033;-57
2021/10/07 10:59:22;;;;;;;15.70;9.45;;;;;;;13.46;28.26;102457.34;5051209;28;20025;-59
2021/10/07 11:02:19;;;;;;;19.20;8.93;;;;;;;13.55;27.97;102456.91;5051977;28;20033;-62
2021/10/07 11:04:46;;;;;;;16.58;8.43;;;;;;;13.44;28.33;102451.19;5052199;28;20461;-61
2021/10/07 11:07:27;;;;;;;15.05;8.43;;;;;;;13.53;28.09;102456.09;5052116;28;20033;-61
2021/10/07 11:09:57;;;;;;;16.17;8.50;;;;;;;13.48;28.02;102452.75;5052275;28;20037;-62
2021/10/07 11:12:23;;;;;;;17.60;8.48;;;;;;;13.42;28.60;102459.31;5044893;28;20079;-62
2021/10/07 11:14:50;;;;;;;17.42;8.75;;;;;;;13.37;28.32;102441.66;5034586;28;20117;-61
2021/10/07 11:17:18;;;;;;;18.80;8.32;;;;;;;13.37;28.24;102442.50;5051674;28;20036;-63
2021/10/07 11:19:45;;;;;;;13.18;7.75;;;;;;;13.33;27.96;102428.34;5051163;28;20397;-62
2021/10/07 11:22:11;;;;;;;15.73;7.78;;;;;;;13.41;27.47;102446.81;5049967;28;20059;-62
2021/10/07 11:24:55;;;;;;;13.63;7.57;;;;;;;13.49;26.82;102446.41;5050667;28;20035;-60